BAW29 EDDN-LOWW
Flight info
| Callsign | BAW29 |
|---|---|
| Flight time | 1h 29m |
| Altitude | 29000 |
| Route | RODIS1G/28 RODIS L604 LAMSI DCT VENEN VENEN3W |
| Aircraft | B738/M-SDE2E3FGHIRWXY/LB1 |
Departure
| Time | 2026-04-25 22:39 |
|---|---|
| Airport | Nuremberg Airport (EDDN) |
Arrival
| Time | 2026-04-26 00:08 |
|---|---|
| Airport | Vienna International Airport (LOWW) |
| Time | Latitude | Longitude | Altitude | Speed | Heading |
|---|---|---|---|---|---|
| 2026-04-25 22:23 | 49.49583 | 11.08276 | 1040 ft | 0 kts | 187° |
| 2026-04-25 22:32 | 49.49565 | 11.08275 | 1040 ft | 5 kts | 175° |
| 2026-04-25 22:33 | 49.49540 | 11.08267 | 1039 ft | 3 kts | 226° |
| 2026-04-25 22:33 | 49.49538 | 11.08242 | 1038 ft | 0 kts | 278° |
| 2026-04-25 22:34 | 49.49541 | 11.08222 | 1038 ft | 2 kts | 300° |
| 2026-04-25 22:34 | 49.49554 | 11.08220 | 1038 ft | 2 kts | 18° |
| 2026-04-25 22:34 | 49.49557 | 11.08240 | 1039 ft | 3 kts | 86° |
| 2026-04-25 22:35 | 49.49559 | 11.08284 | 1040 ft | 5 kts | 85° |
| 2026-04-25 22:35 | 49.49571 | 11.08353 | 1041 ft | 7 kts | 58° |
| 2026-04-25 22:35 | 49.49602 | 11.08435 | 1042 ft | 10 kts | 72° |
| 2026-04-25 22:35 | 49.49603 | 11.08554 | 1044 ft | 12 kts | 99° |
| 2026-04-25 22:36 | 49.49588 | 11.08707 | 1045 ft | 16 kts | 98° |
| 2026-04-25 22:36 | 49.49570 | 11.08894 | 1048 ft | 19 kts | 98° |
| 2026-04-25 22:36 | 49.49549 | 11.09116 | 1049 ft | 22 kts | 98° |
| 2026-04-25 22:36 | 49.49536 | 11.09325 | 1052 ft | 18 kts | 82° |
| 2026-04-25 22:37 | 49.49595 | 11.09491 | 1055 ft | 18 kts | 53° |
| 2026-04-25 22:37 | 49.49686 | 11.09555 | 1058 ft | 9 kts | 325° |
| 2026-04-25 22:37 | 49.49699 | 11.09517 | 1058 ft | 2 kts | 284° |
| 2026-04-25 22:37 | 49.49701 | 11.09505 | 1057 ft | 2 kts | 284° |
| 2026-04-25 22:38 | 49.49708 | 11.09453 | 1057 ft | 15 kts | 278° |
| 2026-04-25 22:38 | 49.49758 | 11.08913 | 1049 ft | 91 kts | 278° |
| 2026-04-25 22:38 | 49.49893 | 11.07567 | 1048 ft | 160 kts | 279° |
| 2026-04-25 22:38 | 49.50083 | 11.05690 | 1458 ft | 187 kts | 279° |
| 2026-04-25 22:39 | 49.50289 | 11.03633 | 2231 ft | 198 kts | 278° |
| 2026-04-25 22:39 | 49.50486 | 11.01570 | 3347 ft | 194 kts | 278° |
| 2026-04-25 22:39 | 49.50693 | 10.99391 | 3780 ft | 223 kts | 278° |
| 2026-04-25 22:39 | 49.50934 | 10.96890 | 4058 ft | 256 kts | 280° |
| 2026-04-25 22:40 | 49.51665 | 10.94351 | 4850 ft | 266 kts | 310° |
| 2026-04-25 22:40 | 49.53190 | 10.92781 | 5907 ft | 268 kts | 342° |
| 2026-04-25 22:40 | 49.55046 | 10.92391 | 6832 ft | 274 kts | 0° |
| 2026-04-25 22:40 | 49.56962 | 10.92479 | 7756 ft | 278 kts | 1° |
| 2026-04-25 22:41 | 49.58913 | 10.92583 | 8672 ft | 282 kts | 1° |
| 2026-04-25 22:41 | 49.60892 | 10.92663 | 9577 ft | 286 kts | 1° |
| 2026-04-25 22:41 | 49.62894 | 10.92735 | 10405 ft | 292 kts | 1° |
| 2026-04-25 22:41 | 49.65011 | 10.92809 | 10693 ft | 318 kts | 3° |
| 2026-04-25 22:42 | 49.67236 | 10.93706 | 10890 ft | 346 kts | 27° |
| 2026-04-25 22:42 | 49.69085 | 10.96175 | 11354 ft | 361 kts | 54° |
| 2026-04-25 22:42 | 49.70188 | 10.99621 | 12143 ft | 365 kts | 74° |
| 2026-04-25 22:42 | 49.70468 | 11.03513 | 12955 ft | 368 kts | 95° |
| 2026-04-25 22:43 | 49.69862 | 11.07356 | 13720 ft | 372 kts | 114° |
| 2026-04-25 22:43 | 49.68623 | 11.10879 | 14467 ft | 376 kts | 121° |
| 2026-04-25 22:43 | 49.67254 | 11.14322 | 15155 ft | 381 kts | 122° |
| 2026-04-25 22:43 | 49.65820 | 11.17806 | 15852 ft | 385 kts | 123° |
| 2026-04-25 22:44 | 49.64374 | 11.21300 | 16542 ft | 389 kts | 122° |
| 2026-04-25 22:44 | 49.62913 | 11.24851 | 17209 ft | 393 kts | 122° |
| 2026-04-25 22:44 | 49.61450 | 11.28437 | 17861 ft | 397 kts | 122° |
| 2026-04-25 22:44 | 49.59978 | 11.32069 | 18489 ft | 401 kts | 122° |
| 2026-04-25 22:45 | 49.58501 | 11.35726 | 19119 ft | 404 kts | 122° |
| 2026-04-25 22:45 | 49.57011 | 11.39424 | 19716 ft | 408 kts | 122° |
| 2026-04-25 22:45 | 49.55506 | 11.43163 | 20301 ft | 412 kts | 122° |
| 2026-04-25 22:45 | 49.53990 | 11.46924 | 20857 ft | 415 kts | 122° |
| 2026-04-25 22:46 | 49.52460 | 11.50716 | 21404 ft | 418 kts | 122° |
| 2026-04-25 22:46 | 49.50920 | 11.54530 | 21917 ft | 422 kts | 122° |
| 2026-04-25 22:46 | 49.49359 | 11.58388 | 22431 ft | 425 kts | 122° |
| 2026-04-25 22:46 | 49.47790 | 11.62262 | 22922 ft | 428 kts | 122° |
| 2026-04-25 22:47 | 49.46212 | 11.66151 | 23396 ft | 432 kts | 122° |
| 2026-04-25 22:47 | 49.44614 | 11.70083 | 23867 ft | 434 kts | 122° |
| 2026-04-25 22:47 | 49.43004 | 11.74039 | 24321 ft | 437 kts | 122° |
| 2026-04-25 22:47 | 49.41387 | 11.78005 | 24784 ft | 440 kts | 122° |
| 2026-04-25 22:48 | 49.39779 | 11.81945 | 25217 ft | 442 kts | 122° |
| 2026-04-25 22:48 | 49.38142 | 11.85948 | 25649 ft | 444 kts | 122° |
| 2026-04-25 22:48 | 49.36494 | 11.89974 | 26075 ft | 446 kts | 122° |
| 2026-04-25 22:48 | 49.34840 | 11.94005 | 26485 ft | 448 kts | 122° |
| 2026-04-25 22:49 | 49.33173 | 11.98065 | 26863 ft | 451 kts | 122° |
| 2026-04-25 22:49 | 49.31495 | 12.02145 | 27188 ft | 454 kts | 122° |
| 2026-04-25 22:49 | 49.29799 | 12.06262 | 27521 ft | 457 kts | 122° |
| 2026-04-25 22:49 | 49.28094 | 12.10394 | 27827 ft | 460 kts | 122° |
| 2026-04-25 22:50 | 49.26375 | 12.14553 | 28097 ft | 464 kts | 122° |
| 2026-04-25 22:50 | 49.24640 | 12.18745 | 28365 ft | 467 kts | 122° |
| 2026-04-25 22:50 | 49.22897 | 12.22948 | 28719 ft | 468 kts | 122° |
| 2026-04-25 22:50 | 49.21156 | 12.27142 | 28999 ft | 468 kts | 122° |
| 2026-04-25 22:51 | 49.17672 | 12.35512 | 28994 ft | 465 kts | 122° |
| 2026-04-25 22:51 | 49.14194 | 12.43844 | 29008 ft | 466 kts | 122° |
| 2026-04-25 22:52 | 49.10694 | 12.52200 | 29008 ft | 468 kts | 123° |
| 2026-04-25 22:52 | 49.07772 | 12.59156 | 29006 ft | 469 kts | 123° |
| 2026-04-25 22:53 | 49.03680 | 12.68868 | 29002 ft | 469 kts | 123° |
| 2026-04-25 22:53 | 49.00134 | 12.77258 | 29000 ft | 469 kts | 123° |
| 2026-04-25 22:54 | 48.96595 | 12.85601 | 28999 ft | 468 kts | 123° |
| 2026-04-25 22:54 | 48.93057 | 12.93918 | 29003 ft | 468 kts | 123° |
| 2026-04-25 22:55 | 48.89540 | 13.02160 | 28999 ft | 468 kts | 123° |
| 2026-04-25 22:55 | 48.86774 | 13.11064 | 29007 ft | 467 kts | 107° |
| 2026-04-25 22:56 | 48.84904 | 13.20509 | 28995 ft | 467 kts | 107° |
| 2026-04-25 22:56 | 48.83042 | 13.29943 | 29001 ft | 467 kts | 107° |
| 2026-04-25 22:57 | 48.81450 | 13.37775 | 29003 ft | 466 kts | 107° |
| 2026-04-25 22:57 | 48.79505 | 13.47181 | 28998 ft | 466 kts | 107° |
| 2026-04-25 22:58 | 48.77551 | 13.56547 | 28998 ft | 466 kts | 108° |
| 2026-04-25 22:58 | 48.75590 | 13.65918 | 29000 ft | 466 kts | 108° |
| 2026-04-25 22:59 | 48.73625 | 13.75267 | 28982 ft | 463 kts | 108° |
| 2026-04-25 22:59 | 48.72658 | 13.79851 | 28537 ft | 453 kts | 108° |
| 2026-04-25 22:59 | 48.71696 | 13.84406 | 27713 ft | 454 kts | 108° |
| 2026-04-25 23:00 | 48.70731 | 13.88960 | 26706 ft | 458 kts | 108° |
| 2026-04-25 23:00 | 48.69746 | 13.93599 | 25555 ft | 465 kts | 108° |
| 2026-04-25 23:00 | 48.68759 | 13.98237 | 25138 ft | 455 kts | 108° |
| 2026-04-25 23:00 | 48.67795 | 14.02759 | 24869 ft | 450 kts | 108° |
| 2026-04-25 23:01 | 48.66833 | 14.07262 | 24620 ft | 450 kts | 108° |
| 2026-04-25 23:01 | 48.65865 | 14.11780 | 24374 ft | 453 kts | 108° |
| 2026-04-25 23:01 | 48.64893 | 14.16309 | 24119 ft | 450 kts | 108° |
| 2026-04-25 23:01 | 48.63929 | 14.20792 | 23867 ft | 448 kts | 108° |
| 2026-04-25 23:02 | 48.62966 | 14.25260 | 23617 ft | 445 kts | 108° |
| 2026-04-25 23:02 | 48.62007 | 14.29695 | 23365 ft | 443 kts | 108° |
| 2026-04-25 23:02 | 48.61063 | 14.34058 | 23121 ft | 442 kts | 108° |
| 2026-04-25 23:02 | 48.60107 | 14.38462 | 22869 ft | 440 kts | 108° |
| 2026-04-25 23:03 | 48.59155 | 14.42846 | 22622 ft | 439 kts | 108° |
| 2026-04-25 23:03 | 48.58202 | 14.47223 | 22368 ft | 438 kts | 108° |
| 2026-04-25 23:03 | 48.57251 | 14.51579 | 22114 ft | 437 kts | 108° |
| 2026-04-25 23:03 | 48.56461 | 14.56008 | 21845 ft | 436 kts | 98° |
| 2026-04-25 23:04 | 48.56207 | 14.60554 | 21629 ft | 434 kts | 93° |
| 2026-04-25 23:04 | 48.56074 | 14.65057 | 21364 ft | 423 kts | 92° |
| 2026-04-25 23:04 | 48.55919 | 14.69386 | 21086 ft | 405 kts | 94° |
| 2026-04-25 23:04 | 48.55725 | 14.73547 | 20823 ft | 388 kts | 94° |
| 2026-04-25 23:05 | 48.55518 | 14.77536 | 20556 ft | 374 kts | 94° |
| 2026-04-25 23:05 | 48.55319 | 14.81385 | 20301 ft | 361 kts | 94° |
| 2026-04-25 23:05 | 48.55131 | 14.85084 | 20036 ft | 350 kts | 94° |
| 2026-04-25 23:05 | 48.54947 | 14.88714 | 19779 ft | 341 kts | 94° |
| 2026-04-25 23:06 | 48.54769 | 14.92242 | 19534 ft | 335 kts | 94° |
| 2026-04-25 23:06 | 48.54589 | 14.95740 | 19286 ft | 335 kts | 94° |
| 2026-04-25 23:06 | 48.54408 | 14.99261 | 19037 ft | 335 kts | 94° |
| 2026-04-25 23:06 | 48.54226 | 15.02758 | 18794 ft | 334 kts | 94° |
| 2026-04-25 23:07 | 48.54042 | 15.06253 | 18550 ft | 334 kts | 94° |
| 2026-04-25 23:07 | 48.53861 | 15.09703 | 18307 ft | 334 kts | 95° |
| 2026-04-25 23:07 | 48.53678 | 15.13201 | 18054 ft | 334 kts | 95° |
| 2026-04-25 23:07 | 48.53493 | 15.16690 | 17810 ft | 333 kts | 95° |
| 2026-04-25 23:08 | 48.53308 | 15.20147 | 17562 ft | 333 kts | 95° |
| 2026-04-25 23:08 | 48.53119 | 15.23654 | 17305 ft | 332 kts | 95° |
| 2026-04-25 23:08 | 48.52931 | 15.27115 | 17060 ft | 331 kts | 95° |
| 2026-04-25 23:08 | 48.52743 | 15.30577 | 16808 ft | 330 kts | 95° |
| 2026-04-25 23:09 | 48.52557 | 15.34009 | 16557 ft | 328 kts | 95° |
| 2026-04-25 23:09 | 48.52369 | 15.37438 | 16304 ft | 326 kts | 95° |
| 2026-04-25 23:09 | 48.52181 | 15.40839 | 16059 ft | 325 kts | 95° |
| 2026-04-25 23:09 | 48.51994 | 15.44200 | 15807 ft | 323 kts | 95° |
| 2026-04-25 23:10 | 48.51806 | 15.47598 | 15554 ft | 322 kts | 95° |
| 2026-04-25 23:10 | 48.51618 | 15.50960 | 15321 ft | 321 kts | 95° |
| 2026-04-25 23:10 | 48.51429 | 15.54332 | 15054 ft | 320 kts | 95° |
| 2026-04-25 23:10 | 48.51246 | 15.57618 | 14815 ft | 319 kts | 95° |
| 2026-04-25 23:11 | 48.51055 | 15.60997 | 14553 ft | 318 kts | 95° |
| 2026-04-25 23:11 | 48.50866 | 15.64319 | 14310 ft | 317 kts | 95° |
| 2026-04-25 23:11 | 48.50680 | 15.67578 | 14053 ft | 314 kts | 95° |
| 2026-04-25 23:11 | 48.50491 | 15.70829 | 13794 ft | 310 kts | 95° |
| 2026-04-25 23:12 | 48.50303 | 15.74049 | 13541 ft | 306 kts | 95° |
| 2026-04-25 23:12 | 48.50098 | 15.77229 | 13283 ft | 304 kts | 100° |
| 2026-04-25 23:12 | 48.49437 | 15.80244 | 13084 ft | 305 kts | 112° |
| 2026-04-25 23:12 | 48.48594 | 15.83211 | 13032 ft | 308 kts | 114° |
| 2026-04-25 23:13 | 48.47742 | 15.86158 | 13008 ft | 305 kts | 114° |
| 2026-04-25 23:13 | 48.46899 | 15.89087 | 13002 ft | 304 kts | 113° |
| 2026-04-25 23:13 | 48.46065 | 15.92011 | 13005 ft | 305 kts | 113° |
| 2026-04-25 23:13 | 48.45238 | 15.94934 | 12956 ft | 302 kts | 113° |
| 2026-04-25 23:14 | 48.44419 | 15.97847 | 12736 ft | 300 kts | 113° |
| 2026-04-25 23:14 | 48.43607 | 16.00741 | 12368 ft | 300 kts | 113° |
| 2026-04-25 23:14 | 48.42803 | 16.03609 | 12008 ft | 300 kts | 113° |
| 2026-04-25 23:14 | 48.41993 | 16.06503 | 11686 ft | 299 kts | 113° |
| 2026-04-25 23:15 | 48.41178 | 16.09412 | 11386 ft | 297 kts | 113° |
| 2026-04-25 23:15 | 48.40377 | 16.12269 | 11074 ft | 296 kts | 113° |
| 2026-04-25 23:15 | 48.39589 | 16.15077 | 10761 ft | 294 kts | 113° |
| 2026-04-25 23:15 | 48.38794 | 16.17912 | 10449 ft | 293 kts | 113° |
| 2026-04-25 23:16 | 48.38000 | 16.20733 | 10142 ft | 292 kts | 113° |
| 2026-04-25 23:16 | 48.37211 | 16.23538 | 9834 ft | 290 kts | 113° |
| 2026-04-25 23:16 | 48.36426 | 16.26325 | 9516 ft | 289 kts | 113° |
| 2026-04-25 23:16 | 48.35646 | 16.29092 | 9248 ft | 285 kts | 113° |
| 2026-04-25 23:17 | 48.34876 | 16.31820 | 9018 ft | 281 kts | 113° |
| 2026-04-25 23:17 | 48.34116 | 16.34509 | 8764 ft | 279 kts | 113° |
| 2026-04-25 23:17 | 48.33360 | 16.37180 | 8508 ft | 276 kts | 113° |
| 2026-04-25 23:17 | 48.32609 | 16.39831 | 8249 ft | 275 kts | 113° |
| 2026-04-25 23:18 | 48.31864 | 16.42460 | 8007 ft | 272 kts | 113° |
| 2026-04-25 23:18 | 48.31124 | 16.45064 | 7751 ft | 271 kts | 113° |
| 2026-04-25 23:18 | 48.30395 | 16.47630 | 7766 ft | 273 kts | 113° |
| 2026-04-25 23:18 | 48.29488 | 16.50329 | 7789 ft | 307 kts | 128° |
| 2026-04-25 23:19 | 48.27898 | 16.52490 | 7804 ft | 307 kts | 144° |
| 2026-04-25 23:19 | 48.26201 | 16.54339 | 7784 ft | 295 kts | 144° |
| 2026-04-25 23:19 | 48.24579 | 16.56108 | 7770 ft | 281 kts | 144° |
| 2026-04-25 23:19 | 48.23043 | 16.57815 | 7751 ft | 269 kts | 143° |
| 2026-04-25 23:20 | 48.21579 | 16.59457 | 7731 ft | 257 kts | 143° |
| 2026-04-25 23:20 | 48.20172 | 16.61039 | 7722 ft | 250 kts | 143° |
| 2026-04-25 23:20 | 48.18797 | 16.62608 | 7684 ft | 248 kts | 139° |
| 2026-04-25 23:20 | 48.17794 | 16.64668 | 7488 ft | 245 kts | 116° |
| 2026-04-25 23:21 | 48.17043 | 16.66972 | 7219 ft | 247 kts | 116° |
| 2026-04-25 23:21 | 48.16297 | 16.69275 | 6995 ft | 246 kts | 116° |
| 2026-04-25 23:21 | 48.15568 | 16.71522 | 6759 ft | 244 kts | 116° |
| 2026-04-25 23:21 | 48.14801 | 16.73862 | 6519 ft | 244 kts | 116° |
| 2026-04-25 23:22 | 48.14077 | 16.76069 | 6330 ft | 243 kts | 116° |
| 2026-04-25 23:22 | 48.13311 | 16.78392 | 6089 ft | 242 kts | 116° |
| 2026-04-25 23:22 | 48.12577 | 16.80609 | 5852 ft | 241 kts | 116° |
| 2026-04-25 23:23 | 48.11091 | 16.85086 | 5364 ft | 240 kts | 116° |
| 2026-04-25 23:23 | 48.10342 | 16.87342 | 5165 ft | 240 kts | 116° |
| 2026-04-25 23:23 | 48.09606 | 16.89553 | 4964 ft | 238 kts | 117° |
| 2026-04-25 23:23 | 48.08874 | 16.91755 | 4752 ft | 238 kts | 116° |
| 2026-04-25 23:24 | 48.08139 | 16.93957 | 4559 ft | 238 kts | 116° |
| 2026-04-25 23:24 | 48.07397 | 16.96176 | 4347 ft | 237 kts | 116° |
| 2026-04-25 23:24 | 48.06668 | 16.98350 | 4166 ft | 235 kts | 117° |
| 2026-04-25 23:24 | 48.05856 | 17.00482 | 4027 ft | 235 kts | 132° |
| 2026-04-25 23:25 | 48.04501 | 17.01835 | 4024 ft | 231 kts | 162° |
| 2026-04-25 23:25 | 48.02914 | 17.01997 | 3986 ft | 231 kts | 195° |
| 2026-04-25 23:25 | 48.01459 | 17.01135 | 4017 ft | 227 kts | 206° |
| 2026-04-25 23:25 | 48.00135 | 16.99859 | 3882 ft | 223 kts | 230° |
| 2026-04-25 23:26 | 47.99460 | 16.97840 | 3790 ft | 216 kts | 255° |
| 2026-04-25 23:26 | 47.99129 | 16.95709 | 3693 ft | 212 kts | 267° |
| 2026-04-25 23:26 | 47.99192 | 16.93550 | 3605 ft | 203 kts | 277° |
| 2026-04-25 23:26 | 47.99702 | 16.91626 | 3525 ft | 197 kts | 302° |
| 2026-04-25 23:27 | 48.00381 | 16.89878 | 3463 ft | 190 kts | 296° |
| 2026-04-25 23:27 | 48.00960 | 16.88131 | 3318 ft | 189 kts | 295° |
| 2026-04-25 23:27 | 48.01534 | 16.86364 | 3197 ft | 190 kts | 296° |
| 2026-04-25 23:27 | 48.02140 | 16.84633 | 3114 ft | 187 kts | 298° |
| 2026-04-25 23:28 | 48.02728 | 16.82911 | 3117 ft | 187 kts | 296° |
| 2026-04-25 23:28 | 48.03293 | 16.81192 | 3101 ft | 178 kts | 296° |
| 2026-04-25 23:28 | 48.03815 | 16.79569 | 3083 ft | 167 kts | 295° |
| 2026-04-25 23:28 | 48.04293 | 16.78055 | 3090 ft | 158 kts | 296° |
| 2026-04-25 23:29 | 48.04799 | 16.76511 | 3141 ft | 175 kts | 295° |
| 2026-04-25 23:29 | 48.05338 | 16.74827 | 3037 ft | 181 kts | 296° |
| 2026-04-25 23:29 | 48.05890 | 16.73122 | 2867 ft | 183 kts | 295° |
| 2026-04-25 23:29 | 48.06440 | 16.71415 | 2629 ft | 184 kts | 296° |
| 2026-04-25 23:30 | 48.07011 | 16.69655 | 2370 ft | 183 kts | 295° |
| 2026-04-25 23:30 | 48.07545 | 16.67982 | 2126 ft | 179 kts | 295° |
| 2026-04-25 23:30 | 48.08081 | 16.66330 | 1884 ft | 169 kts | 295° |
| 2026-04-25 23:30 | 48.08572 | 16.64801 | 1667 ft | 161 kts | 295° |
| 2026-04-25 23:31 | 48.09057 | 16.63306 | 1451 ft | 159 kts | 295° |
| 2026-04-25 23:31 | 48.09542 | 16.61803 | 1251 ft | 162 kts | 295° |
| 2026-04-25 23:31 | 48.10035 | 16.60277 | 1030 ft | 163 kts | 295° |
| 2026-04-25 23:31 | 48.10519 | 16.58783 | 848 ft | 156 kts | 295° |
| 2026-04-25 23:32 | 48.10988 | 16.57338 | 1112 ft | 155 kts | 295° |
| 2026-04-25 23:32 | 48.11482 | 16.55809 | 1420 ft | 180 kts | 295° |
| 2026-04-25 23:32 | 48.12012 | 16.54159 | 2640 ft | 172 kts | 295° |
| 2026-04-25 23:32 | 48.12478 | 16.52311 | 2695 ft | 187 kts | 288° |
| 2026-04-25 23:33 | 48.12827 | 16.50337 | 2827 ft | 201 kts | 279° |
| 2026-04-25 23:33 | 48.13002 | 16.48244 | 3133 ft | 202 kts | 274° |
| 2026-04-25 23:33 | 48.12991 | 16.46116 | 3249 ft | 216 kts | 258° |
| 2026-04-25 23:33 | 48.12305 | 16.44101 | 3158 ft | 216 kts | 232° |
| 2026-04-25 23:34 | 48.11392 | 16.42376 | 3094 ft | 210 kts | 232° |
| 2026-04-25 23:34 | 48.10501 | 16.40673 | 3168 ft | 203 kts | 232° |
| 2026-04-25 23:34 | 48.09637 | 16.39024 | 3238 ft | 204 kts | 232° |
| 2026-04-25 23:34 | 48.08732 | 16.37315 | 3638 ft | 209 kts | 230° |
| 2026-04-25 23:35 | 48.07557 | 16.36100 | 4620 ft | 211 kts | 197° |
| 2026-04-25 23:35 | 48.06086 | 16.36070 | 5563 ft | 217 kts | 166° |
| 2026-04-25 23:35 | 48.04745 | 16.37099 | 5914 ft | 228 kts | 146° |
| 2026-04-25 23:35 | 48.03346 | 16.38548 | 5991 ft | 257 kts | 145° |
| 2026-04-25 23:36 | 48.01873 | 16.40085 | 5993 ft | 256 kts | 145° |
| 2026-04-25 23:36 | 48.00909 | 16.41095 | 5999 ft | 254 kts | 145° |
| 2026-04-25 23:36 | 47.98989 | 16.43113 | 5998 ft | 252 kts | 145° |
| 2026-04-25 23:36 | 47.97609 | 16.44707 | 5993 ft | 251 kts | 134° |
| 2026-04-25 23:37 | 47.96701 | 16.46922 | 6011 ft | 248 kts | 111° |
| 2026-04-25 23:37 | 47.96201 | 16.49343 | 5996 ft | 238 kts | 106° |
| 2026-04-25 23:37 | 47.95779 | 16.51626 | 5980 ft | 227 kts | 105° |
| 2026-04-25 23:37 | 47.95372 | 16.53868 | 5988 ft | 222 kts | 105° |
| 2026-04-25 23:38 | 47.94974 | 16.56128 | 5988 ft | 221 kts | 99° |
| 2026-04-25 23:38 | 47.95092 | 16.58328 | 6001 ft | 217 kts | 65° |
| 2026-04-25 23:38 | 47.95829 | 16.60280 | 5997 ft | 215 kts | 65° |
| 2026-04-25 23:38 | 47.96350 | 16.62367 | 5984 ft | 218 kts | 81° |
| 2026-04-25 23:39 | 47.96386 | 16.63883 | 6027 ft | 219 kts | 93° |
| 2026-04-25 23:39 | 47.96232 | 16.66953 | 6003 ft | 222 kts | 95° |
| 2026-04-25 23:39 | 47.96100 | 16.69213 | 5954 ft | 217 kts | 95° |
| 2026-04-25 23:39 | 47.95968 | 16.71424 | 5830 ft | 212 kts | 95° |
| 2026-04-25 23:40 | 47.95834 | 16.73644 | 5655 ft | 217 kts | 95° |
| 2026-04-25 23:40 | 47.95693 | 16.75907 | 5441 ft | 222 kts | 95° |
| 2026-04-25 23:40 | 47.95581 | 16.78215 | 5187 ft | 223 kts | 86° |
| 2026-04-25 23:40 | 47.96076 | 16.80378 | 4932 ft | 223 kts | 52° |
| 2026-04-25 23:41 | 47.97214 | 16.81878 | 4724 ft | 222 kts | 35° |
| 2026-04-25 23:41 | 47.98487 | 16.83238 | 4488 ft | 225 kts | 35° |
| 2026-04-25 23:41 | 47.99750 | 16.84590 | 4247 ft | 225 kts | 35° |
| 2026-04-25 23:41 | 48.00606 | 16.85501 | 4077 ft | 224 kts | 35° |
| 2026-04-25 23:42 | 48.02002 | 16.86468 | 3801 ft | 220 kts | 6° |
| 2026-04-25 23:42 | 48.03473 | 16.86146 | 3582 ft | 217 kts | 333° |
| 2026-04-25 23:42 | 48.04558 | 16.84644 | 3361 ft | 212 kts | 297° |
| 2026-04-25 23:42 | 48.04849 | 16.82566 | 3122 ft | 202 kts | 262° |
| 2026-04-25 23:43 | 48.04571 | 16.80584 | 3014 ft | 187 kts | 256° |
| 2026-04-25 23:43 | 48.04369 | 16.78731 | 2998 ft | 183 kts | 278° |
| 2026-04-25 23:43 | 48.04874 | 16.76986 | 3055 ft | 187 kts | 295° |
| 2026-04-25 23:43 | 48.05286 | 16.75125 | 3017 ft | 189 kts | 289° |
| 2026-04-25 23:44 | 48.05804 | 16.73340 | 2871 ft | 182 kts | 296° |
| 2026-04-25 23:44 | 48.06365 | 16.71632 | 2662 ft | 177 kts | 295° |
| 2026-04-25 23:44 | 48.06909 | 16.69973 | 2409 ft | 176 kts | 296° |
| 2026-04-25 23:44 | 48.07429 | 16.68327 | 2151 ft | 171 kts | 296° |
| 2026-04-25 23:45 | 48.07941 | 16.66762 | 1918 ft | 163 kts | 295° |
| 2026-04-25 23:45 | 48.08422 | 16.65271 | 1724 ft | 160 kts | 295° |
| 2026-04-25 23:45 | 48.08898 | 16.63796 | 1532 ft | 163 kts | 296° |
| 2026-04-25 23:45 | 48.09400 | 16.62243 | 1306 ft | 164 kts | 295° |
| 2026-04-25 23:46 | 48.09896 | 16.60705 | 1085 ft | 161 kts | 295° |
| 2026-04-25 23:46 | 48.10365 | 16.59258 | 878 ft | 154 kts | 295° |
| 2026-04-25 23:46 | 48.10823 | 16.57840 | 681 ft | 149 kts | 295° |
| 2026-04-25 23:46 | 48.11259 | 16.56493 | 881 ft | 146 kts | 295° |
| 2026-04-25 23:47 | 48.11709 | 16.55106 | 1357 ft | 149 kts | 295° |
| 2026-04-25 23:47 | 48.12162 | 16.53730 | 2331 ft | 144 kts | 296° |
| 2026-04-25 23:47 | 48.12599 | 16.52403 | 3277 ft | 138 kts | 295° |
| 2026-04-25 23:47 | 48.12951 | 16.51124 | 4178 ft | 142 kts | 289° |
| 2026-04-25 23:48 | 48.13343 | 16.49471 | 3955 ft | 187 kts | 291° |
| 2026-04-25 23:48 | 48.13849 | 16.47669 | 3751 ft | 184 kts | 292° |
| 2026-04-25 23:48 | 48.14335 | 16.45896 | 3581 ft | 189 kts | 291° |
| 2026-04-25 23:48 | 48.14809 | 16.44073 | 3433 ft | 191 kts | 291° |
| 2026-04-25 23:49 | 48.15299 | 16.42227 | 3400 ft | 189 kts | 291° |
| 2026-04-25 23:49 | 48.15767 | 16.40420 | 3427 ft | 185 kts | 291° |
| 2026-04-25 23:49 | 48.16233 | 16.38622 | 3425 ft | 183 kts | 291° |
| 2026-04-25 23:49 | 48.16690 | 16.36858 | 3423 ft | 180 kts | 291° |
| 2026-04-25 23:50 | 48.17143 | 16.35113 | 3423 ft | 178 kts | 291° |
| 2026-04-25 23:50 | 48.17386 | 16.33341 | 3400 ft | 175 kts | 273° |
| 2026-04-25 23:50 | 48.17471 | 16.31481 | 3392 ft | 180 kts | 274° |
| 2026-04-25 23:50 | 48.17563 | 16.29590 | 3448 ft | 184 kts | 274° |
| 2026-04-25 23:51 | 48.17659 | 16.27664 | 3522 ft | 187 kts | 274° |
| 2026-04-25 23:51 | 48.17757 | 16.25720 | 3699 ft | 186 kts | 274° |
| 2026-04-25 23:51 | 48.17855 | 16.23714 | 3942 ft | 213 kts | 274° |
| 2026-04-25 23:51 | 48.18021 | 16.21343 | 4581 ft | 241 kts | 285° |
| 2026-04-25 23:52 | 48.18826 | 16.19129 | 5707 ft | 248 kts | 311° |
| 2026-04-25 23:52 | 48.20234 | 16.17650 | 5948 ft | 249 kts | 341° |
| 2026-04-25 23:52 | 48.21966 | 16.17381 | 5971 ft | 254 kts | 9° |
| 2026-04-25 23:52 | 48.23547 | 16.18415 | 5994 ft | 251 kts | 39° |
| 2026-04-25 23:53 | 48.24694 | 16.20373 | 6016 ft | 249 kts | 53° |
| 2026-04-25 23:53 | 48.25681 | 16.22452 | 6001 ft | 250 kts | 54° |
| 2026-04-25 23:53 | 48.26696 | 16.24638 | 6004 ft | 251 kts | 55° |
| 2026-04-25 23:53 | 48.27677 | 16.26763 | 5994 ft | 251 kts | 55° |
| 2026-04-25 23:54 | 48.28670 | 16.28918 | 6012 ft | 251 kts | 55° |
| 2026-04-25 23:54 | 48.29401 | 16.31276 | 5999 ft | 253 kts | 78° |
| 2026-04-25 23:54 | 48.29631 | 16.33920 | 6006 ft | 254 kts | 84° |
| 2026-04-25 23:54 | 48.29790 | 16.36546 | 5998 ft | 253 kts | 85° |
| 2026-04-25 23:55 | 48.29942 | 16.39186 | 5999 ft | 253 kts | 85° |
| 2026-04-25 23:55 | 48.30091 | 16.41809 | 6002 ft | 251 kts | 85° |
| 2026-04-25 23:55 | 48.30236 | 16.44402 | 5984 ft | 246 kts | 85° |
| 2026-04-25 23:55 | 48.30362 | 16.46912 | 5988 ft | 243 kts | 90° |
| 2026-04-25 23:56 | 48.29942 | 16.49360 | 6003 ft | 240 kts | 119° |
| 2026-04-25 23:56 | 48.29045 | 16.51468 | 6013 ft | 240 kts | 124° |
| 2026-04-25 23:56 | 48.28094 | 16.53541 | 6017 ft | 245 kts | 125° |
| 2026-04-25 23:56 | 48.27115 | 16.55653 | 6000 ft | 245 kts | 125° |
| 2026-04-25 23:57 | 48.26142 | 16.57745 | 6001 ft | 241 kts | 125° |
| 2026-04-25 23:57 | 48.25202 | 16.59769 | 5993 ft | 239 kts | 125° |
| 2026-04-25 23:57 | 48.24262 | 16.61785 | 5987 ft | 236 kts | 125° |
| 2026-04-25 23:57 | 48.23310 | 16.63828 | 6003 ft | 241 kts | 125° |
| 2026-04-25 23:58 | 48.22338 | 16.65907 | 6002 ft | 244 kts | 125° |
| 2026-04-25 23:58 | 48.21372 | 16.67976 | 6000 ft | 242 kts | 125° |
| 2026-04-25 23:58 | 48.20395 | 16.70068 | 5997 ft | 239 kts | 125° |
| 2026-04-25 23:58 | 48.19455 | 16.72081 | 5993 ft | 239 kts | 125° |
| 2026-04-25 23:59 | 48.18501 | 16.74118 | 5992 ft | 238 kts | 125° |
| 2026-04-25 23:59 | 48.17556 | 16.76141 | 6002 ft | 239 kts | 125° |
| 2026-04-25 23:59 | 48.16599 | 16.78189 | 5995 ft | 240 kts | 125° |
| 2026-04-25 23:59 | 48.15639 | 16.80242 | 5976 ft | 240 kts | 125° |
| 2026-04-26 00:00 | 48.14681 | 16.82290 | 5781 ft | 238 kts | 125° |
| 2026-04-26 00:00 | 48.13728 | 16.84324 | 5487 ft | 240 kts | 125° |
| 2026-04-26 00:00 | 48.12779 | 16.86351 | 5242 ft | 236 kts | 125° |
| 2026-04-26 00:00 | 48.11852 | 16.88330 | 5095 ft | 228 kts | 125° |
| 2026-04-26 00:01 | 48.10966 | 16.90229 | 5030 ft | 218 kts | 125° |
| 2026-04-26 00:01 | 48.10109 | 16.92060 | 4881 ft | 214 kts | 125° |
| 2026-04-26 00:01 | 48.09130 | 16.93715 | 4716 ft | 215 kts | 144° |
| 2026-04-26 00:01 | 48.07833 | 16.94814 | 4618 ft | 215 kts | 161° |
| 2026-04-26 00:02 | 48.06364 | 16.95393 | 4494 ft | 217 kts | 160° |
| 2026-04-26 00:02 | 48.04924 | 16.95944 | 4326 ft | 216 kts | 181° |
| 2026-04-26 00:02 | 48.03499 | 16.95381 | 4200 ft | 214 kts | 213° |
| 2026-04-26 00:02 | 48.02520 | 16.93744 | 4055 ft | 213 kts | 248° |
| 2026-04-26 00:03 | 48.02228 | 16.91595 | 3946 ft | 211 kts | 264° |
| 2026-04-26 00:03 | 48.02094 | 16.89385 | 3785 ft | 214 kts | 265° |
| 2026-04-26 00:03 | 48.01964 | 16.87167 | 3672 ft | 213 kts | 265° |
| 2026-04-26 00:03 | 48.02126 | 16.85018 | 3462 ft | 210 kts | 290° |
| 2026-04-26 00:04 | 48.02701 | 16.83044 | 3365 ft | 202 kts | 295° |
| 2026-04-26 00:04 | 48.03302 | 16.81167 | 3196 ft | 198 kts | 295° |
| 2026-04-26 00:04 | 48.03880 | 16.79366 | 3090 ft | 189 kts | 295° |
| 2026-04-26 00:04 | 48.04456 | 16.77589 | 3083 ft | 191 kts | 295° |
| 2026-04-26 00:05 | 48.05031 | 16.75792 | 3009 ft | 191 kts | 295° |
| 2026-04-26 00:05 | 48.05573 | 16.74098 | 2929 ft | 180 kts | 295° |
| 2026-04-26 00:05 | 48.06116 | 16.72415 | 2735 ft | 175 kts | 295° |
| 2026-04-26 00:05 | 48.06637 | 16.70818 | 2515 ft | 171 kts | 296° |
| 2026-04-26 00:06 | 48.07159 | 16.69192 | 2281 ft | 169 kts | 294° |
| 2026-04-26 00:06 | 48.07650 | 16.67657 | 2067 ft | 163 kts | 296° |
| 2026-04-26 00:06 | 48.08132 | 16.66169 | 1866 ft | 156 kts | 295° |
| 2026-04-26 00:06 | 48.08602 | 16.64708 | 1672 ft | 156 kts | 295° |
| 2026-04-26 00:07 | 48.09053 | 16.63321 | 1461 ft | 159 kts | 295° |
| 2026-04-26 00:07 | 48.09526 | 16.61851 | 1251 ft | 154 kts | 295° |
| 2026-04-26 00:07 | 48.09987 | 16.60425 | 1042 ft | 151 kts | 295° |
| 2026-04-26 00:07 | 48.10438 | 16.59031 | 843 ft | 151 kts | 295° |
| 2026-04-26 00:08 | 48.10907 | 16.57583 | 654 ft | 153 kts | 295° |
| 2026-04-26 00:08 | 48.11335 | 16.56247 | 599 ft | 129 kts | 295° |
| 2026-04-26 00:08 | 48.11571 | 16.55511 | 597 ft | 34 kts | 302° |
| 2026-04-26 00:08 | 48.11721 | 16.55255 | 591 ft | 24 kts | 321° |
| 2026-04-26 00:09 | 48.11749 | 16.55225 | 592 ft | 0 kts | 327° |